Hovedside
METAR-TAF:

METAR-TAF

Lufthavner :

Åre Östersund lufthavn

Östersund-Frösön, Sverige

breddegrad: 63-11N, lengdegrad: 014-30E, høyde over havet: 376 m

Gjeldene værobservasjon

Denne rapporten ble laget for 34 minutter siden, klokken 19:20 UTC
Vind 11 kt fra Sør-sørøst
Temperatur 18°C
Luftfuktighet 68%
Trykk 1005 hPa
Sikt 10 km eller mer
Få skyer i en høyde av 5700 ft

METAR: ESNZ 161920Z 16011KT 9999 FEW057 18/12 Q1005

Tid: 21:54 (19:54 UTC)

Varsel

Denne rapporten ble laget for 2 timer og 24 minutter siden, klokken 17:30 UTC
Varsel gyldig fra 16. klokken 18 UTC til 16. klokken 22 UTC
Vind 14 kt fra Sør
Sikt 10 km eller mer
Brutte skyer i en høyde av 4000 ft
Sannsynlighet 40%
fra 16. klokken 18 UTC til 16. klokken 22 UTC
Vind 15 kt fra Sør med vindkast opp mot 25 kt

TAF: ESNZ 161730Z 1618/1622 18014KT 9999 BKN040 PROB40 1618/1622 17015G25KT

Værobservasjoner og værvarsel for over 4000 flyplasser (METAR- og TAF-rapporter).

Tilgjengelige stasjoner er representert av de røde og gule prikkene på kartet.

Hold musepekeren over prikken for å se navnet på stasjonen.

Klikk så for å se værobservasjoner og -varsler.

For å forandre kartet kan du klikke på den grønne knappen med svart kryss for å zoome inn, på den grønne knappen med strek for å zoome ut, eller på de grønne pilene for å se tilstøtende kart.


METAR-TAF: